.
WxDataArchive / Data Records for 2007-09-01
2007-08-31 September 2007 2007-09-02

Data Records for Saturday, 01 September 2007

Time	Temp	Chill	HIndex	Humid	Dewpt	 Wind 	HiWind	WindDir	Rain 	Barom 
-----	----	-----	------	-----	-----	------	------	-------	-----	----- 
00:00	57.0	57.0	57.0	94	55.3	0	0	---	0.00	30.146 
00:05	57.0	57.0	57.0	94	55.3	0	0	---	0.00	30.144 
00:10	56.9	56.9	56.9	94	55.2	0	0	---	0.00	30.147 
00:15	56.9	56.9	56.9	94	55.2	0	0	---	0.00	30.151 
00:20	56.7	56.7	56.7	94	55.0	0	0	---	0.00	30.154 
00:25	56.6	56.6	56.6	94	54.9	0	0	---	0.00	30.154 
00:30	56.5	56.5	56.5	95	55.1	0	0	---	0.00	30.155 
00:35	56.5	56.5	56.5	95	55.1	0	0	---	0.00	30.156 
00:40	56.3	56.3	56.3	95	54.9	0	0	---	0.00	30.157 
00:45	56.2	56.2	56.2	95	54.8	0	0	---	0.00	30.159 
00:50	56.2	56.2	56.2	95	54.8	0	0	---	0.00	30.159 
00:55	56.0	56.0	56.0	95	54.6	0	0	---	0.00	30.158 
01:00	56.0	56.0	56.0	95	54.6	0	0	---	0.00	30.159 
01:05	56.0	56.0	56.0	95	54.6	0	0	---	0.00	30.157 
01:10	55.9	55.9	55.9	95	54.5	0	0	---	0.00	30.155 
01:15	55.9	55.9	55.9	96	54.8	0	0	---	0.00	30.154 
01:20	55.9	55.9	55.9	96	54.8	0	0	---	0.00	30.154 
01:25	55.7	55.7	55.7	96	54.6	0	0	---	0.00	30.154 
01:30	55.9	55.9	55.9	96	54.8	0	0	---	0.00	30.152 
01:35	55.7	55.7	55.7	96	54.6	0	0	---	0.00	30.152 
01:40	55.7	55.7	55.7	96	54.6	0	0	---	0.00	30.153 
01:45	55.7	55.7	55.7	96	54.6	0	0	---	0.00	30.150 
01:50	55.7	55.7	55.7	96	54.6	0	0	---	0.00	30.151 
01:55	55.6	55.6	55.6	96	54.5	0	0	---	0.00	30.149 
02:00	55.6	55.6	55.6	96	54.5	0	0	---	0.00	30.148 
02:05	55.4	55.4	55.4	96	54.3	0	0	---	0.00	30.149 
02:10	55.3	55.3	55.3	96	54.2	0	0	---	0.00	30.151 
02:15	55.3	55.3	55.3	96	54.2	0	0	---	0.00	30.155 
02:20	55.1	55.1	55.1	96	54.0	0	0	---	0.00	30.156 
02:25	55.1	55.1	55.1	96	54.0	0	0	---	0.00	30.158 
02:30	55.1	55.1	55.1	96	54.0	0	0	---	0.00	30.158 
02:35	55.0	55.0	55.0	96	53.9	0	0	---	0.00	30.158 
02:40	55.0	55.0	55.0	96	53.9	0	0	---	0.00	30.158 
02:45	54.8	54.8	54.8	96	53.7	0	0	---	0.00	30.158 
02:50	54.8	54.8	54.8	96	53.7	0	0	---	0.00	30.157 
02:55	54.7	54.7	54.7	96	53.6	0	0	---	0.00	30.158 
03:00	54.7	54.7	54.7	96	53.6	0	0	---	0.00	30.158 
03:05	54.7	54.7	54.7	96	53.6	0	0	---	0.00	30.157 
03:10	54.7	54.7	54.7	96	53.6	0	0	---	0.00	30.157 
03:15	54.7	54.7	54.7	97	53.9	0	0	---	0.00	30.156 
03:20	54.5	54.5	54.5	96	53.4	0	0	---	0.00	30.153 
03:25	54.5	54.5	54.5	97	53.7	0	0	---	0.00	30.151 
03:30	54.5	54.5	54.5	97	53.7	0	0	---	0.00	30.150 
03:35	54.4	54.4	54.4	97	53.6	0	0	---	0.00	30.150 
03:40	54.2	54.2	54.2	97	53.4	0	0	---	0.00	30.149 
03:45	54.2	54.2	54.2	97	53.4	0	0	---	0.00	30.147 
03:50	54.1	54.1	54.1	97	53.3	0	0	---	0.00	30.146 
03:55	54.1	54.1	54.1	97	53.3	0	0	---	0.00	30.147 
04:00	54.1	54.1	54.1	97	53.3	0	0	---	0.00	30.148 
04:05	53.9	53.9	53.9	97	53.1	0	0	---	0.00	30.148 
04:10	53.9	53.9	53.9	97	53.1	0	0	---	0.00	30.149 
04:15	53.8	53.8	53.8	97	53.0	0	0	---	0.00	30.148 
04:20	53.8	53.8	53.8	97	53.0	0	0	---	0.00	30.149 
04:25	53.6	53.6	53.6	97	52.8	0	0	---	0.00	30.148 
04:30	53.5	53.5	53.5	97	52.7	0	0	---	0.00	30.148 
04:35	53.5	53.5	53.5	97	52.7	0	0	---	0.00	30.149 
04:40	53.5	53.5	53.5	97	52.7	0	0	---	0.00	30.151 
04:45	53.3	53.3	53.3	97	52.5	0	0	---	0.00	30.154 
04:50	53.3	53.3	53.3	97	52.5	0	0	---	0.00	30.156 
04:55	53.2	53.2	53.2	97	52.4	0	0	---	0.00	30.157 
05:00	53.2	53.2	53.2	97	52.4	0	0	---	0.00	30.160 
05:05	53.2	53.2	53.2	97	52.4	0	0	---	0.00	30.162 
05:10	53.2	53.2	53.2	97	52.4	0	0	---	0.00	30.162 
05:15	53.1	53.1	53.1	97	52.3	0	0	---	0.00	30.162 
05:20	53.1	53.1	53.1	97	52.3	0	0	---	0.00	30.161 
05:25	53.1	53.1	53.1	97	52.3	0	0	---	0.00	30.160 
05:30	53.1	53.1	53.1	97	52.3	0	0	---	0.00	30.160 
05:35	53.1	53.1	53.1	97	52.3	0	0	---	0.00	30.161 
05:40	53.1	53.1	53.1	97	52.3	0	0	---	0.00	30.162 
05:45	52.9	52.9	52.9	97	52.1	0	0	---	0.00	30.162 
05:50	52.8	52.8	52.8	97	52.0	0	0	---	0.00	30.162 
05:55	52.8	52.8	52.8	97	52.0	0	0	---	0.00	30.163 
06:00	52.8	52.8	52.8	97	52.0	0	0	---	0.00	30.165 
06:05	52.8	52.8	52.8	97	52.0	0	0	---	0.00	30.169 
06:10	52.6	52.6	52.6	97	51.8	0	0	---	0.00	30.172 
06:15	52.6	52.6	52.6	97	51.8	0	0	---	0.00	30.175 
06:20	52.8	52.8	52.8	97	52.0	0	0	---	0.00	30.177 
06:25	52.8	52.8	52.8	97	52.0	0	0	---	0.00	30.179 
06:30	52.9	52.9	52.9	97	52.1	0	0	---	0.00	30.180 
06:35	53.1	53.1	53.1	97	52.3	0	0	---	0.00	30.180 
06:40	53.2	53.2	53.2	97	52.4	0	0	---	0.00	30.180 
06:45	53.5	53.5	53.5	97	52.7	0	0	---	0.00	30.178 
06:50	53.9	53.9	53.9	98	53.3	0	0	---	0.00	30.178 
06:55	54.4	54.4	54.4	98	53.8	0	0	---	0.00	30.179 
07:00	55.0	55.0	55.0	98	54.4	0	0	---	0.00	30.181 
07:05	55.7	55.7	55.7	98	55.1	0	1	112	0.00	30.185 
07:10	56.3	56.3	56.3	98	55.7	0	0	---	0.00	30.184 
07:15	56.9	56.9	56.9	98	56.3	0	0	---	0.00	30.186 
07:20	57.8	57.8	57.8	98	57.2	0	0	---	0.00	30.185 
07:25	58.6	58.6	58.6	98	58.0	0	2	112	0.00	30.185 
07:30	58.9	58.9	58.9	98	58.3	0	1	112	0.00	30.186 
07:35	59.2	59.2	59.2	98	58.6	0	1	112	0.00	30.185 
07:40	59.2	59.2	59.2	97	58.3	1	6	68	0.00	30.186 
07:45	59.8	59.8	59.8	94	58.1	0	1	68	0.00	30.189 
07:50	60.5	60.5	60.5	92	58.2	0	1	68	0.00	30.190 
07:55	61.2	61.2	61.2	87	57.3	1	4	68	0.00	30.192 
08:00	61.6	61.6	61.6	82	56.0	2	6	112	0.00	30.192 
08:05	62.3	62.3	62.3	81	56.4	1	3	112	0.00	30.197 
08:10	62.9	62.9	62.9	81	57.0	1	3	112	0.00	30.198 
08:15	63.4	63.4	63.4	78	56.4	1	4	112	0.00	30.200 
08:20	63.7	63.7	63.7	76	56.0	2	5	90	0.00	30.200 
08:25	64.2	64.2	64.2	74	55.7	2	4	90	0.00	30.203 
08:30	64.5	64.5	64.5	75	56.4	2	5	112	0.00	30.204 
08:35	64.8	64.8	64.8	75	56.7	1	5	112	0.00	30.205 
08:40	65.2	65.2	65.2	75	57.1	2	4	112	0.00	30.204 
08:45	65.8	65.8	65.8	72	56.5	2	6	90	0.00	30.204 
08:50	66.3	66.3	66.3	69	55.8	2	5	112	0.00	30.206 
08:55	66.6	66.6	66.6	69	56.1	2	4	90	0.00	30.208 
09:00	66.9	66.9	66.9	69	56.4	2	5	90	0.00	30.208 
09:05	67.6	67.6	67.6	69	57.1	1	3	112	0.00	30.210 
09:10	68.4	68.4	68.4	65	56.2	1	4	90	0.00	30.210 
09:15	68.8	68.8	68.8	64	56.1	2	3	112	0.00	30.211 
09:20	69.3	69.3	69.3	62	55.7	2	5	90	0.00	30.211 
09:25	69.4	69.4	69.4	62	55.8	3	7	90	0.00	30.210 
09:30	69.6	69.6	69.6	63	56.4	3	6	90	0.00	30.210 
09:35	69.9	69.9	69.9	62	56.3	3	6	112	0.00	30.211 
09:40	70.3	70.3	70.3	61	56.2	2	5	90	0.00	30.213 
09:45	70.6	70.6	70.6	61	56.5	3	6	90	0.00	30.210 
09:50	71.1	71.1	71.1	62	57.4	2	5	112	0.00	30.208 
09:55	71.6	71.6	71.6	60	57.0	3	7	90	0.00	30.207 
10:00	71.5	71.5	71.5	59	56.4	4	7	90	0.00	30.211 
10:05	71.8	71.8	71.8	61	57.6	2	6	112	0.00	30.213 
10:10	72.3	72.3	72.3	60	57.6	2	6	90	0.00	30.213 
10:15	73.0	73.0	73.0	64	60.1	2	5	90	0.00	30.216 
10:20	73.0	73.0	73.0	59	57.8	2	5	90	0.00	30.216 
10:25	73.2	73.2	73.2	59	58.0	2	6	112	0.00	30.214 
10:30	73.3	73.3	73.3	61	59.0	2	6	112	0.00	30.211 
10:35	73.5	73.5	73.5	58	57.8	3	6	90	0.00	30.209 
10:40	73.5	73.5	73.5	60	58.7	3	9	112	0.00	30.209 
10:45	74.0	74.0	74.0	59	58.7	1	4	112	0.00	30.208 
10:50	73.9	73.9	73.9	57	57.7	3	7	90	0.00	30.208 
10:55	74.0	74.0	74.0	59	58.7	2	4	90	0.00	30.211 
11:00	74.6	74.6	74.6	54	56.8	2	6	90	0.00	30.212 
11:05	74.7	74.7	74.7	54	56.9	3	6	112	0.00	30.216 
11:10	74.4	74.4	74.4	56	57.7	3	7	90	0.00	30.219 
11:15	74.9	74.9	74.9	54	57.1	2	6	112	0.00	30.218 
11:20	75.1	75.1	77.6	55	57.8	3	7	112	0.00	30.217 
11:25	75.3	75.3	77.7	55	58.0	3	6	90	0.00	30.215 
11:30	75.1	75.1	77.6	55	57.8	2	5	90	0.00	30.215 
11:35	75.4	75.4	77.8	54	57.6	3	6	112	0.00	30.213 
11:40	75.6	75.6	77.9	52	56.7	2	5	90	0.00	30.210 
11:45	76.0	76.0	78.1	51	56.5	2	7	90	0.00	30.207 
11:50	76.1	76.1	78.1	51	56.6	2	5	112	0.00	30.207 
11:55	76.1	76.1	78.1	49	55.5	3	9	112	0.00	30.207 
12:00	76.3	76.3	78.3	54	58.4	2	6	90	0.00	30.208 
12:05	76.5	76.5	78.4	55	59.1	2	5	112	0.00	30.207 
12:10	76.3	76.3	78.2	50	56.3	3	6	90	0.00	30.206 
12:15	76.5	76.5	78.3	50	56.5	2	6	112	0.00	30.205 
12:20	76.5	76.5	78.3	51	57.0	3	9	90	0.00	30.204 
12:25	76.8	76.8	78.5	51	57.3	2	9	112	0.00	30.202 
12:30	77.0	77.0	78.6	49	56.4	1	5	135	0.00	30.202 
12:35	77.4	77.4	78.8	50	57.3	2	7	112	0.00	30.199 
12:40	77.2	77.2	78.7	48	56.0	3	6	90	0.00	30.199 
12:45	77.0	77.0	78.5	48	55.8	3	7	90	0.00	30.198 
12:50	77.2	77.2	78.7	48	56.0	2	7	112	0.00	30.194 
12:55	77.0	77.0	78.5	46	54.6	4	9	90	0.00	30.195 
13:00	77.2	77.2	78.7	48	56.0	2	5	90	0.00	30.194 
13:05	77.4	77.4	78.7	47	55.6	2	4	112	0.00	30.194 
13:10	77.7	77.7	78.8	45	54.6	1	5	112	0.00	30.190 
13:15	77.7	77.7	78.9	47	55.8	3	6	90	0.00	30.188 
13:20	77.9	77.9	79.1	48	56.6	2	5	112	0.00	30.187 
13:25	77.7	77.7	78.9	47	55.8	2	5	90	0.00	30.187 
13:30	77.9	77.9	78.9	45	54.8	3	7	90	0.00	30.187 
13:35	77.7	77.7	78.9	48	56.4	2	4	90	0.00	30.187 
13:40	77.7	77.7	78.8	45	54.6	3	6	90	0.00	30.187 
13:45	77.9	77.9	79.0	46	55.4	2	6	112	0.00	30.186 
13:50	78.5	78.5	79.3	45	55.4	2	7	90	0.00	30.185 
13:55	78.1	78.1	79.0	44	54.4	3	7	90	0.00	30.184 
14:00	78.3	78.3	79.2	45	55.2	2	5	90	0.00	30.180 
14:05	78.3	78.3	79.1	44	54.6	2	6	90	0.00	30.180 
14:10	78.1	78.1	79.0	45	55.0	2	5	90	0.00	30.182 
14:15	78.5	78.5	79.1	42	53.5	3	9	90	0.00	30.179 
14:20	78.3	78.3	79.0	42	53.3	3	7	112	0.00	30.179 
14:25	78.5	78.5	79.1	42	53.5	3	9	112	0.00	30.174 
14:30	78.5	78.5	79.1	41	52.8	3	6	90	0.00	30.172 
14:35	78.6	78.6	79.2	43	54.2	2	7	90	0.00	30.172 
14:40	78.6	78.6	79.2	43	54.2	3	6	90	0.00	30.172 
14:45	78.5	78.5	79.1	41	52.8	3	6	90	0.00	30.172 
14:50	78.1	78.1	79.0	44	54.4	4	7	90	0.00	30.173 
14:55	78.1	78.1	78.9	43	53.8	2	7	135	0.00	30.171 
15:00	78.5	78.5	79.2	43	54.1	3	9	90	0.00	30.169 
15:05	78.8	78.8	79.2	41	53.1	3	6	90	0.00	30.171 
15:10	79.0	79.0	79.6	44	55.2	2	6	112	0.00	30.169 
15:15	79.2	79.2	79.8	45	56.0	2	6	112	0.00	30.166 
15:20	79.2	79.2	79.6	43	54.7	3	8	90	0.00	30.162 
15:25	78.8	78.8	79.5	45	55.6	3	7	90	0.00	30.166 
15:30	78.6	78.6	79.2	43	54.2	3	6	90	0.00	30.164 
15:35	78.6	78.6	79.3	44	54.8	2	5	90	0.00	30.162 
15:40	78.6	78.6	79.4	45	55.5	2	7	90	0.00	30.161 
15:45	78.6	78.6	79.3	44	54.8	3	10	90	0.00	30.161 
15:50	78.6	78.6	79.4	45	55.5	3	6	90	0.00	30.160 
15:55	78.6	78.6	79.5	47	56.7	2	5	90	0.00	30.159 
16:00	78.6	78.6	79.3	44	54.8	2	5	90	0.00	30.159 
16:05	78.6	78.6	79.4	45	55.5	3	7	90	0.00	30.159 
16:10	78.5	78.5	79.2	43	54.1	3	10	90	0.00	30.159 
16:15	78.3	78.3	79.0	42	53.3	3	6	90	0.00	30.159 
16:20	78.5	78.5	79.2	44	54.7	2	6	90	0.00	30.158 
16:25	78.6	78.6	79.4	46	56.1	1	5	112	0.00	30.158 
16:30	78.5	78.5	79.2	43	54.1	2	6	90	0.00	30.158 
16:35	78.1	78.1	78.9	43	53.8	2	6	90	0.00	30.159 
16:40	78.1	78.1	78.9	43	53.8	2	7	112	0.00	30.159 
16:45	78.1	78.1	78.9	43	53.8	3	7	112	0.00	30.158 
16:50	77.9	77.9	78.8	43	53.6	2	5	90	0.00	30.157 
16:55	77.9	77.9	78.9	44	54.2	2	5	90	0.00	30.155 
17:00	77.7	77.7	78.7	42	52.8	3	5	90	0.00	30.155 
17:05	77.7	77.7	78.8	44	54.0	2	4	90	0.00	30.156 
17:10	77.7	77.7	78.7	43	53.4	2	7	112	0.00	30.156 
17:15	77.6	77.6	78.8	45	54.6	2	7	112	0.00	30.153 
17:20	77.6	77.6	78.8	45	54.6	2	5	90	0.00	30.154 
17:25	77.6	77.6	78.7	43	53.3	1	4	112	0.00	30.152 
17:30	77.6	77.6	78.8	45	54.6	1	5	68	0.00	30.151 
17:35	77.4	77.4	78.6	45	54.4	1	4	90	0.00	30.152 
17:40	77.2	77.2	78.6	46	54.8	2	4	112	0.00	30.152 
17:45	77.0	77.0	78.5	47	55.2	2	4	90	0.00	30.152 
17:50	76.8	76.8	78.4	47	55.0	2	5	90	0.00	30.153 
17:55	76.7	76.7	78.4	48	55.5	2	4	112	0.00	30.152 
18:00	76.5	76.5	78.3	47	54.7	2	5	90	0.00	30.150 
18:05	76.3	76.3	78.2	48	55.1	1	3	90	0.00	30.146 
18:10	76.3	76.3	78.2	48	55.1	1	3	90	0.00	30.146 
18:15	76.1	76.1	78.1	49	55.5	1	3	90	0.00	30.145 
18:20	76.0	76.0	78.1	50	56.0	0	3	112	0.00	30.144 
18:25	75.8	75.8	78.0	50	55.8	1	3	112	0.00	30.145 
18:30	75.6	75.6	77.9	52	56.7	0	2	112	0.00	30.144 
18:35	75.4	75.4	77.8	52	56.5	0	2	112	0.00	30.144 
18:40	75.1	75.1	77.6	55	57.8	0	0	---	0.00	30.143 
18:45	74.7	74.7	74.7	56	57.9	0	0	---	0.00	30.144 
18:50	74.2	74.2	74.2	57	58.0	0	0	---	0.00	30.145 
18:55	73.7	73.7	73.7	58	58.0	0	0	---	0.00	30.146 
19:00	73.2	73.2	73.2	58	57.5	0	0	---	0.00	30.145 
19:05	72.7	72.7	72.7	60	58.0	0	0	---	0.00	30.141 
19:10	72.1	72.1	72.1	61	57.9	0	0	---	0.00	30.141 
19:15	71.8	71.8	71.8	62	58.1	0	0	---	0.00	30.142 
19:20	71.3	71.3	71.3	63	58.0	0	0	---	0.00	30.143 
19:25	70.8	70.8	70.8	64	58.0	0	0	---	0.00	30.143 
19:30	70.1	70.1	70.1	66	58.2	0	0	---	0.00	30.143 
19:35	69.8	69.8	69.8	67	58.3	0	0	---	0.00	30.145 
19:40	69.3	69.3	69.3	69	58.7	0	0	---	0.00	30.145 
19:45	68.9	68.9	68.9	70	58.7	0	0	---	0.00	30.144 
19:50	68.6	68.6	68.6	70	58.4	0	0	---	0.00	30.145 
19:55	68.3	68.3	68.3	71	58.5	0	0	---	0.00	30.146 
20:00	67.8	67.8	67.8	72	58.4	0	0	---	0.00	30.145 
20:05	67.4	67.4	67.4	73	58.4	0	0	---	0.00	30.143 
20:10	67.1	67.1	67.1	73	58.1	0	0	---	0.00	30.148 
20:15	66.9	66.9	66.9	73	58.0	0	0	---	0.00	30.150 
20:20	66.6	66.6	66.6	73	57.7	0	0	---	0.00	30.152 
20:25	66.4	66.4	66.4	73	57.5	0	0	---	0.00	30.154 
20:30	66.4	66.4	66.4	73	57.5	0	0	---	0.00	30.154 
20:35	66.6	66.6	66.6	72	57.3	0	1	112	0.00	30.153 
20:40	66.8	66.8	66.8	72	57.5	0	0	---	0.00	30.152 
20:45	66.9	66.9	66.9	72	57.6	0	2	112	0.00	30.152 
20:50	67.4	67.4	67.4	70	57.3	1	4	90	0.00	30.154 
20:55	67.8	67.8	67.8	70	57.6	1	2	90	0.00	30.154 
21:00	68.1	68.1	68.1	69	57.5	0	2	90	0.00	30.154 
21:05	68.1	68.1	68.1	70	57.9	1	3	112	0.00	30.149 
21:10	68.1	68.1	68.1	70	57.9	1	3	135	0.00	30.150 
21:15	67.9	67.9	67.9	70	57.7	1	2	135	0.00	30.150 
21:20	67.8	67.8	67.8	71	58.0	1	2	135	0.00	30.151 
21:25	67.6	67.6	67.6	72	58.2	1	2	112	0.00	30.151 
21:30	67.3	67.3	67.3	73	58.3	1	3	112	0.00	30.153 
21:35	67.1	67.1	67.1	73	58.1	1	2	112	0.00	30.153 
21:40	66.9	66.9	66.9	73	58.0	1	3	112	0.00	30.154 
21:45	66.8	66.8	66.8	74	58.2	1	2	112	0.00	30.154 
21:50	66.4	66.4	66.4	75	58.2	0	1	112	0.00	30.154 
21:55	66.3	66.3	66.3	75	58.1	1	2	112	0.00	30.154 
22:00	66.0	66.0	66.0	76	58.2	0	1	112	0.00	30.154 
22:05	65.8	65.8	65.8	77	58.4	0	1	112	0.00	30.151 
22:10	65.5	65.5	65.5	77	58.1	0	1	112	0.00	30.153 
22:15	65.3	65.3	65.3	78	58.3	0	1	112	0.00	30.155 
22:20	65.0	65.0	65.0	78	58.0	0	1	112	0.00	30.156 
22:25	64.8	64.8	64.8	79	58.1	0	1	112	0.00	30.158 
22:30	64.5	64.5	64.5	80	58.2	0	1	112	0.00	30.158 
22:35	64.3	64.3	64.3	81	58.3	0	1	112	0.00	30.157 
22:40	64.2	64.2	64.2	81	58.2	0	1	112	0.00	30.154 
22:45	64.0	64.0	64.0	81	58.0	0	1	112	0.00	30.154 
22:50	64.0	64.0	64.0	81	58.0	0	1	112	0.00	30.157 
22:55	63.9	63.9	63.9	81	57.9	0	2	112	0.00	30.163 
23:00	63.9	63.9	63.9	81	57.9	0	2	112	0.00	30.164 
23:05	63.7	63.7	63.7	81	57.8	0	1	112	0.00	30.162 
23:10	63.5	63.5	63.5	82	57.9	0	1	112	0.00	30.162 
23:15	63.4	63.4	63.4	82	57.8	0	1	112	0.00	30.165 
23:20	63.2	63.2	63.2	83	57.9	0	2	112	0.00	30.165 
23:25	63.1	63.1	63.1	83	57.8	0	2	112	0.00	30.166 
23:30	62.9	62.9	62.9	83	57.7	0	1	112	0.00	30.167 
23:35	62.7	62.7	62.7	84	57.8	0	1	112	0.00	30.167 
23:40	62.6	62.6	62.6	84	57.7	0	0	---	0.00	30.166 
23:45	62.3	62.3	62.3	84	57.4	0	0	---	0.00	30.167 
23:50	62.0	62.0	62.0	84	57.1	0	0	---	0.00	30.167 
23:55	61.6	61.6	61.6	85	57.0	0	0	---	0.00	30.167 

CoCoRaHS
IN-AL-39
A2 Web Hosting
Creative Commons License
GoDaddy
Look for:

loaded 2017-10-17 09:37:40 • last modified 2010-11-18 10:43:29
Privacy PolicyDisclaimer
• wx.awcolley.com is powered by PmWiki v.2002016 •
• all content (unless otherwise noted) © 2017 A W Colley